Time;durP1;ratioP1;P1;durP2;ratioP2;P2;SDS_P1;SDS_P2;PMS_P1;PMS_P2;Temp;Humidity;BMP_temperature;BMP_pressure;BME280_temperature;BME280_humidity;BME280_pressure;Samples;Min_cycle;Max_cycle;Signal;HPM_P1;HPM_P2
2022/07/21 00:01:13;;;;;;;265.58;91.80;;;20.00;99.90;;;19.26;100.00;97668.03;5069506;28;20398;-78
2022/07/21 00:03:39;;;;;;;251.73;87.65;;;20.00;99.90;;;19.16;100.00;97674.41;5069613;28;20407;-78
2022/07/21 00:06:06;;;;;;;274.75;90.50;;;19.90;99.90;;;19.22;100.00;97669.72;5069719;28;20403;-78
2022/07/21 00:08:32;;;;;;;354.70;103.47;;;19.90;99.90;;;19.06;100.00;97663.88;5069267;28;20395;-79
2022/07/21 00:10:59;;;;;;;179.27;76.63;;;19.70;99.90;;;19.17;100.00;97669.84;5069556;28;20487;-78
2022/07/21 00:13:25;;;;;;;318.05;94.15;;;19.70;99.90;;;18.98;100.00;97667.25;5069532;28;20415;-78
2022/07/21 00:15:51;;;;;;;249.95;86.38;;;19.80;99.90;;;18.92;100.00;97657.72;5069665;28;20442;-79
2022/07/21 00:18:20;;;;;;;220.70;80.30;;;19.70;99.90;;;18.94;100.00;97668.94;5069034;28;20395;-78
2022/07/21 00:20:46;;;;;;;261.87;88.63;;;19.70;99.90;;;18.98;100.00;97675.28;5069217;28;20416;-79
2022/07/21 00:23:12;;;;;;;238.38;85.97;;;19.70;99.90;;;18.83;100.00;97675.59;5069709;28;20388;-79
2022/07/21 00:25:38;;;;;;;221.73;82.30;;;19.60;99.90;;;18.89;100.00;97672.50;5069438;28;20414;-79
2022/07/21 00:28:05;;;;;;;233.27;84.72;;;19.60;99.90;;;18.80;100.00;97678.84;5068969;28;20407;-79
2022/07/21 00:30:33;;;;;;;248.50;87.72;;;19.50;99.90;;;18.92;100.00;97685.34;5069222;28;20894;-79
2022/07/21 00:32:59;;;;;;;215.17;80.77;;;19.60;99.90;;;18.86;100.00;97685.72;5069643;28;20426;-79
2022/07/21 00:35:27;;;;;;;218.40;85.40;;;19.60;99.90;;;18.91;100.00;97673.00;5069504;28;20399;-79
2022/07/21 00:37:53;;;;;;;204.98;78.72;;;19.70;99.90;;;18.91;100.00;97673.00;5069454;28;20435;-79
2022/07/21 00:40:19;;;;;;;217.43;80.13;;;19.60;99.90;;;19.00;100.00;97685.75;5068377;28;20423;-79
2022/07/21 00:42:45;;;;;;;168.95;72.78;;;19.70;99.90;;;19.06;100.00;97690.69;5069430;28;20412;-79
2022/07/21 00:45:11;;;;;;;256.10;82.47;;;19.80;99.90;;;18.97;100.00;97689.00;5069396;28;20449;-79
2022/07/21 00:47:38;;;;;;;211.15;79.13;;;19.70;99.90;;;19.08;100.00;97674.31;5069317;28;20435;-80
2022/07/21 00:50:09;;;;;;;187.23;74.65;;;19.80;99.90;;;18.98;100.00;97675.28;5068641;28;20388;-79
2022/07/21 00:52:37;;;;;;;183.32;71.35;;;19.70;99.90;;;18.98;100.00;97667.25;5069486;28;20426;-79
2022/07/21 00:55:05;;;;;;;175.27;68.68;;;19.70;99.90;;;19.04;100.00;97665.25;5073126;28;20465;-80
2022/07/21 00:57:31;;;;;;;147.95;66.93;;;19.70;99.90;;;19.16;100.00;97676.31;5073070;28;20418;-79
2022/07/21 00:59:58;;;;;;;237.25;80.85;;;19.80;99.90;;;19.12;100.00;97686.03;5070978;28;20777;-79
2022/07/21 01:02:26;;;;;;;172.25;69.05;;;19.80;99.90;;;19.01;100.00;97685.44;5072620;28;20893;-79
2022/07/21 01:04:52;;;;;;;161.18;70.00;;;19.70;99.90;;;19.09;100.00;97686.63;5072894;28;20403;-79
2022/07/21 01:07:19;;;;;;;202.82;77.35;;;19.70;99.90;;;19.05;100.00;97689.09;5072918;28;20795;-79
2022/07/21 01:09:47;;;;;;;194.15;73.53;;;19.70;99.90;;;19.00;100.00;97694.59;5072258;28;20403;-79
2022/07/21 01:12:14;;;;;;;164.80;67.35;;;19.70;99.90;;;19.01;100.00;97692.69;5072557;28;20396;-79
2022/07/21 01:14:40;;;;;;;185.05;73.05;;;19.70;99.90;;;19.00;100.00;97697.25;5072621;28;21089;-79
2022/07/21 01:17:06;;;;;;;202.93;76.15;;;19.70;99.90;;;19.02;100.00;97686.25;5072839;28;20495;-79
2022/07/21 01:19:32;;;;;;;188.48;72.97;;;19.70;99.90;;;19.04;100.00;97687.50;5072204;28;20476;-79
2022/07/21 01:21:59;;;;;;;178.85;72.00;;;19.70;99.90;;;18.97;100.00;97689.00;5072469;28;20491;-79
2022/07/21 01:24:25;;;;;;;155.05;68.22;;;19.70;99.90;;;18.91;100.00;97691.00;5072515;28;20403;-79
2022/07/21 01:26:53;;;;;;;144.73;64.95;;;19.60;99.90;;;18.86;100.00;97688.41;5072682;28;20987;-79
2022/07/21 01:29:19;;;;;;;153.88;64.07;;;19.50;99.90;;;18.91;100.00;97688.31;5072047;28;20400;-79
2022/07/21 01:31:47;;;;;;;144.43;62.83;;;19.60;99.90;;;18.96;100.00;97698.94;5072255;28;20400;-79
2022/07/21 01:34:14;;;;;;;138.23;61.13;;;19.60;99.90;;;18.90;100.00;97706.28;5071316;28;20403;-79
2022/07/21 01:36:40;;;;;;;125.82;60.38;;;19.60;99.90;;;18.85;100.00;97701.03;5072509;28;20533;-79
2022/07/21 01:41:53;;;;;;;139.93;61.45;;;19.60;99.90;;;18.81;100.00;97689.28;5072288;28;20395;-79
2022/07/21 01:44:20;;;;;;;133.60;60.47;;;19.50;99.90;;;18.79;100.00;97693.38;5072389;28;20415;-79
2022/07/21 01:46:50;;;;;;;117.72;57.45;;;19.50;99.90;;;18.75;100.00;97698.53;5072169;28;20901;-79
2022/07/21 01:49:18;;;;;;;120.93;57.70;;;19.40;99.90;;;18.73;100.00;97705.25;5071791;28;20399;-79
2022/07/21 01:51:45;;;;;;;95.57;53.10;;;19.40;99.90;;;18.77;100.00;97717.00;5078530;22;20473;-78
2022/07/21 01:54:12;;;;;;;115.23;58.30;;;19.40;99.90;;;18.72;100.00;97709.81;5051862;28;20394;-77
2022/07/21 01:56:39;;;;;;;112.55;56.97;;;19.40;99.90;;;18.68;100.00;97727.63;5033956;28;20866;-78
2022/07/21 01:59:06;;;;;;;116.30;57.33;;;19.40;99.90;;;18.75;100.00;97752.16;5051158;28;20825;-77
2022/07/21 02:01:34;;;;;;;98.13;53.23;;;19.40;99.90;;;18.68;100.00;97761.69;5051541;28;20405;-79
2022/07/21 02:04:03;;;;;;;113.45;57.22;;;19.30;99.90;;;18.62;100.00;97742.19;5051043;28;20883;-79
2022/07/21 02:06:29;;;;;;;110.53;56.17;;;19.30;99.90;;;18.56;100.00;97735.34;5051841;28;20404;-78
2022/07/21 02:08:55;;;;;;;117.88;57.92;;;19.20;99.90;;;18.50;100.00;97728.41;5051093;28;20432;-77
2022/07/21 02:11:23;;;;;;;158.20;64.70;;;19.20;99.90;;;18.52;100.00;97715.53;5051232;28;20496;-78
2022/07/21 02:13:49;;;;;;;173.85;67.32;;;19.20;99.90;;;18.59;100.00;97723.22;5051360;28;20397;-78
2022/07/21 02:16:15;;;;;;;253.90;73.65;;;19.20;99.90;;;18.58;100.00;97727.78;5051651;28;20993;-77
2022/07/21 02:18:41;;;;;;;149.55;62.38;;;19.40;99.90;;;18.66;100.00;97719.06;5050767;28;20401;-77
2022/07/21 02:21:08;;;;;;;237.15;71.50;;;19.30;99.90;;;18.55;100.00;97713.06;5051165;28;20480;-76
2022/07/21 02:23:34;;;;;;;262.95;74.60;;;19.30;99.90;;;18.67;100.00;97728.69;5051369;28;20401;-77
2022/07/21 02:26:02;;;;;;;158.13;63.10;;;19.40;99.90;;;18.60;100.00;97722.94;5051287;28;20389;-76
2022/07/21 02:28:29;;;;;;;130.45;58.03;;;19.30;99.90;;;18.59;100.00;97723.22;5032691;28;20412;-76
2022/07/21 02:30:56;;;;;;;223.90;70.22;;;19.20;99.90;;;18.45;100.00;97717.78;5050924;28;20519;-76
2022/07/21 02:33:22;;;;;;;176.63;64.82;;;19.10;99.90;;;18.44;100.00;97725.03;5051292;28;20441;-76
2022/07/21 02:35:48;;;;;;;147.18;59.17;;;19.10;99.90;;;18.44;100.00;97718.88;5051120;28;20489;-77
2022/07/21 02:38:14;;;;;;;180.52;63.35;;;19.10;99.90;;;18.30;100.00;97710.78;5050620;28;20398;-77
2022/07/21 02:40:40;;;;;;;168.98;60.65;;;19.10;99.90;;;18.33;100.00;97712.09;5050640;28;20475;-77
2022/07/21 02:43:06;;;;;;;137.98;56.10;;;19.10;99.90;;;18.41;100.00;97714.91;5050974;28;20405;-78
2022/07/21 02:45:34;;;;;;;149.30;60.57;;;19.10;99.90;;;18.42;100.00;97724.53;5050799;28;20405;-77
2022/07/21 02:48:03;;;;;;;191.23;66.53;;;19.10;99.90;;;18.31;100.00;97709.72;5050728;28;20412;-77
2022/07/21 02:50:32;;;;;;;207.50;67.63;;;19.10;99.90;;;18.27;100.00;97715.94;5050471;28;20763;-77
2022/07/21 02:53:01;;;;;;;118.53;52.45;;;19.00;99.90;;;18.35;100.00;97717.94;5050570;28;20397;-77
2022/07/21 02:55:28;;;;;;;153.18;59.50;;;19.00;99.90;;;18.33;100.00;97720.13;5050595;28;20437;-76
2022/07/21 02:58:05;;;;;;;170.30;61.35;;;19.10;99.90;;;18.22;100.00;97716.00;5050642;28;20898;-77
2022/07/21 03:00:34;;;;;;;153.77;58.03;;;19.00;99.90;;;18.25;100.00;97723.47;5050381;28;20486;-77
2022/07/21 03:03:00;;;;;;;189.73;64.82;;;19.00;99.90;;;18.28;100.00;97726.34;5050480;28;20401;-77
2022/07/21 03:05:26;;;;;;;154.18;58.55;;;19.00;99.90;;;18.30;100.00;97728.75;5050541;28;20491;-77
2022/07/21 03:07:51;;;;;;;158.13;60.27;;;19.10;99.90;;;18.33;100.00;97731.66;5050513;28;20822;-76
2022/07/21 03:10:17;;;;;;;179.13;60.50;;;19.10;99.90;;;18.29;100.00;97724.47;5031812;28;20409;-77
2022/07/21 03:12:43;;;;;;;138.07;55.95;;;19.00;99.90;;;18.38;100.00;97725.41;5050374;28;20452;-77
2022/07/21 03:15:10;;;;;;;145.80;56.28;;;19.10;99.90;;;18.40;100.00;97729.41;5050100;28;20410;-77
2022/07/21 03:17:37;;;;;;;212.13;63.90;;;19.10;99.90;;;18.30;100.00;97732.22;5050162;28;20423;-77
2022/07/21 03:20:04;;;;;;;182.35;59.45;;;19.10;99.90;;;18.28;100.00;97731.72;5049600;28;20417;-77
2022/07/21 03:22:30;;;;;;;178.02;59.55;;;19.10;99.90;;;18.33;100.00;97730.84;5050444;28;20429;-77
2022/07/21 03:24:56;;;;;;;188.97;62.27;;;19.10;99.90;;;18.32;100.00;97739.97;5050248;28;20750;-77
2022/07/21 03:27:22;;;;;;;182.70;61.00;;;19.10;99.90;;;18.29;100.00;97744.03;5050184;28;20405;-77
2022/07/21 03:29:48;;;;;;;158.03;55.77;;;19.00;99.90;;;18.30;100.00;97751.00;5049451;28;20397;-77
2022/07/21 03:32:14;;;;;;;160.88;54.78;;;19.00;99.90;;;18.30;100.00;97747.50;5049861;28;20397;-77
2022/07/21 03:34:41;;;;;;;116.07;51.92;;;19.00;99.90;;;18.43;100.00;97747.56;5049955;28;20398;-77
2022/07/21 03:37:07;;;;;;;106.85;48.78;;;19.10;99.90;;;18.40;100.00;97750.84;5049941;28;20439;-77
2022/07/21 03:39:33;;;;;;;202.00;63.40;;;19.10;99.90;;;18.45;100.00;97752.63;5049276;28;20915;-77
2022/07/21 03:41:59;;;;;;;188.23;60.33;;;19.10;99.90;;;18.33;100.00;97763.03;5049609;28;20918;-77
2022/07/21 03:44:25;;;;;;;148.20;54.23;;;19.10;99.90;;;18.36;100.00;97759.75;5049727;28;20492;-77
2022/07/21 03:46:51;;;;;;;99.90;48.08;;;19.10;99.90;;;18.41;100.00;97767.72;5049885;28;20405;-77
2022/07/21 03:49:17;;;;;;;124.70;50.97;;;19.10;99.90;;;18.38;100.00;97770.97;5049069;28;20917;-76
2022/07/21 03:51:44;;;;;;;133.88;52.78;;;19.10;99.90;;;18.36;100.00;97770.47;5055740;28;21153;-77
2022/07/21 03:54:10;;;;;;;172.27;57.40;;;19.10;99.90;;;18.33;100.00;97768.38;5058557;28;20403;-78
2022/07/21 03:56:36;;;;;;;162.35;55.30;;;19.10;99.90;;;18.36;100.00;97775.81;5042242;28;20404;-77
2022/07/21 03:59:02;;;;;;;162.95;57.03;;;19.10;99.90;;;18.39;100.00;97776.06;5058114;28;20420;-77
2022/07/21 04:01:29;;;;;;;159.20;56.50;;;19.10;99.90;;;18.43;100.00;97786.97;5058866;28;20403;-77
2022/07/21 04:03:55;;;;;;;134.40;51.27;;;19.20;99.90;;;18.44;100.00;97791.25;5060239;28;20897;-77
2022/07/21 04:06:21;;;;;;;143.70;53.38;;;19.20;99.90;;;18.44;100.00;97802.78;5040547;28;20439;-77
2022/07/21 04:08:48;;;;;;;173.57;58.50;;;19.20;99.90;;;18.39;100.00;97797.50;5058556;28;20396;-78
2022/07/21 04:11:14;;;;;;;171.38;56.10;;;19.20;99.90;;;18.37;100.00;97788.94;5059828;28;20549;-78
2022/07/21 04:13:40;;;;;;;170.60;55.63;;;19.10;99.90;;;18.40;100.00;97785.69;5058155;28;20402;-78
2022/07/21 04:16:07;;;;;;;157.43;52.00;;;19.10;99.90;;;18.42;100.00;97782.69;5059142;28;20452;-78
2022/07/21 04:18:33;;;;;;;142.35;52.40;;;19.10;99.90;;;18.46;100.00;97786.41;5041738;28;20409;-78
2022/07/21 04:20:58;;;;;;;185.17;59.27;;;19.20;99.90;;;18.41;100.00;97786.50;5054984;28;20428;-78
2022/07/21 04:23:24;;;;;;;184.90;57.83;;;19.20;99.90;;;18.34;100.00;97786.84;5058973;28;20460;-78
2022/07/21 04:25:52;;;;;;;157.57;54.05;;;19.10;99.90;;;18.30;100.00;97793.06;5059827;28;20782;-78
2022/07/21 04:28:18;;;;;;;175.05;56.20;;;19.00;99.90;;;18.26;100.00;97787.50;5060685;28;20437;-78
2022/07/21 04:30:44;;;;;;;124.82;51.33;;;19.00;99.90;;;18.34;100.00;97792.22;5062736;28;20422;-78
2022/07/21 04:33:10;;;;;;;161.27;56.72;;;19.00;99.90;;;18.25;100.00;97787.78;5060234;28;20412;-79
2022/07/21 04:35:36;;;;;;;198.27;60.65;;;19.00;99.90;;;18.36;100.00;97794.59;5058632;28;20885;-78
2022/07/21 04:38:02;;;;;;;148.57;52.95;;;19.10;99.90;;;18.27;100.00;97807.06;5058591;28;20406;-79
2022/07/21 04:40:28;;;;;;;169.95;55.20;;;19.00;99.90;;;18.23;100.00;97806.84;5044172;28;20427;-79
2022/07/21 04:42:55;;;;;;;172.77;55.17;;;19.00;99.90;;;18.19;100.00;97809.28;5062367;28;20402;-79
2022/07/21 04:45:21;;;;;;;152.03;52.00;;;19.00;99.90;;;18.18;100.00;97812.28;5062193;28;20395;-78
2022/07/21 04:47:54;;;;;;;173.13;55.53;;;18.90;99.90;;;18.23;100.00;97811.41;5063891;28;20400;-80
2022/07/21 04:50:22;;;;;;;151.43;53.00;;;19.00;99.90;;;18.30;100.00;97809.16;5044226;28;20422;-79
2022/07/21 04:52:49;;;;;;;169.93;55.08;;;19.00;99.90;;;18.34;100.00;97810.19;5061280;28;20405;-78
2022/07/21 04:55:15;;;;;;;133.57;52.63;;;19.00;99.90;;;18.43;100.00;97811.09;5062837;28;20788;-77
2022/07/21 04:57:44;;;;;;;174.80;57.00;;;19.10;99.90;;;18.42;100.00;97812.19;5063087;28;20405;-78
2022/07/21 05:00:16;;;;;;;143.98;51.28;;;19.20;99.90;;;18.45;100.00;97812.41;5058240;28;20794;-78
2022/07/21 05:02:43;;;;;;;177.40;56.75;;;19.20;99.90;;;18.49;100.00;97812.63;5061620;28;20400;-79
2022/07/21 05:05:09;;;;;;;150.33;51.57;;;19.20;99.90;;;18.48;100.00;97803.00;5063071;28;20399;-78
2022/07/21 05:07:35;;;;;;;167.95;55.30;;;19.20;99.90;;;18.51;100.00;97797.03;5062090;28;20416;-78
2022/07/21 05:10:05;;;;;;;169.38;56.75;;;19.20;99.90;;;18.58;100.00;97792.13;5061166;28;20438;-78
2022/07/21 05:12:31;;;;;;;152.50;52.03;;;19.30;99.90;;;18.59;100.00;97804.44;5059030;28;20381;-78
2022/07/21 05:14:57;;;;;;;171.52;56.83;;;19.30;99.90;;;18.66;100.00;97809.44;5062169;28;20523;-78
2022/07/21 05:17:25;;;;;;;179.20;56.38;;;19.40;99.90;;;18.71;100.00;97812.06;5062830;28;20495;-77
2022/07/21 05:19:51;;;;;;;176.07;55.85;;;19.40;99.90;;;18.78;100.00;97807.09;5071753;28;20430;-78
2022/07/21 05:22:17;;;;;;;192.27;58.70;;;19.50;99.90;;;18.84;100.00;97814.78;5054261;28;20462;-79
2022/07/21 05:24:43;;;;;;;182.30;56.78;;;19.60;99.90;;;18.92;100.00;97808.75;5072279;28;20988;-78
2022/07/21 05:27:09;;;;;;;170.73;55.05;;;19.60;99.90;;;18.99;100.00;97813.72;5057242;28;20482;-78
2022/07/21 05:29:35;;;;;;;174.67;55.20;;;19.70;99.90;;;19.04;100.00;97813.63;5051361;28;20492;-78
2022/07/21 05:32:01;;;;;;;158.85;53.75;;;19.70;99.90;;;19.12;100.00;97817.50;5051879;28;20405;-80
2022/07/21 05:34:29;;;;;;;187.00;58.95;;;19.80;99.90;;;19.14;100.00;97821.50;5052161;28;20462;-78
2022/07/21 05:36:55;;;;;;;176.93;55.65;;;19.80;99.90;;;19.17;100.00;97822.81;5052248;28;20492;-78
2022/07/21 05:39:21;;;;;;;181.43;56.23;;;19.90;99.90;;;19.18;100.00;97814.44;5052318;28;20482;-80
2022/07/21 05:41:47;;;;;;;190.05;59.97;;;19.90;99.90;;;19.18;100.00;97825.19;5054636;28;20766;-79
2022/07/21 05:44:25;;;;;;;192.50;58.30;;;19.90;99.90;;;19.16;100.00;97822.03;5045331;28;20405;-78
2022/07/21 05:46:52;;;;;;;184.48;56.70;;;19.90;99.90;;;19.13;100.00;97819.13;5040645;28;20407;-79
2022/07/21 05:49:18;;;;;;;152.53;58.50;;;19.80;99.90;;;19.09;100.00;97824.28;5041525;28;20842;-77
2022/07/21 05:51:46;;;;;;;143.35;56.75;;;19.80;99.90;;;18.93;100.00;97829.13;5057909;28;20443;-75
2022/07/21 05:54:12;;;;;;;145.25;54.05;;;19.70;99.90;;;18.88;100.00;97845.28;5043397;28;20416;-76
2022/07/21 05:56:38;;;;;;;186.52;60.60;;;19.70;99.90;;;18.87;100.00;97848.25;5051887;28;20898;-76
2022/07/21 05:59:04;;;;;;;175.73;60.50;;;19.60;99.90;;;18.86;100.00;97844.78;5050880;28;20401;-76
2022/07/21 06:01:30;;;;;;;195.95;62.50;;;19.60;99.90;;;18.87;100.00;97848.25;5050813;28;20748;-75
2022/07/21 06:03:56;;;;;;;171.07;59.28;;;19.60;99.90;;;18.90;100.00;97858.41;5050688;28;20404;-75
2022/07/21 06:06:23;;;;;;;193.90;60.15;;;19.60;99.90;;;18.92;100.00;97859.72;5051668;28;20407;-76
2022/07/21 06:08:51;;;;;;;177.95;56.20;;;19.60;99.90;;;19.01;100.00;97859.84;5051163;28;20459;-76
2022/07/21 06:11:20;;;;;;;174.45;59.22;;;19.70;99.90;;;19.08;100.00;97862.16;5051360;28;20404;-75
2022/07/21 06:13:46;;;;;;;182.90;60.63;;;19.70;99.90;;;19.09;100.00;97863.75;5051484;28;20437;-76
2022/07/21 06:16:12;;;;;;;155.48;57.03;;;19.70;99.90;;;19.13;100.00;97859.38;5051619;28;20859;-76
2022/07/21 06:18:38;;;;;;;117.65;50.42;;;19.80;99.90;;;19.16;100.00;97864.97;5050753;28;20397;-75
2022/07/21 06:21:05;;;;;;;194.15;65.97;;;19.80;99.90;;;19.16;100.00;97862.28;5051030;28;20906;-76
2022/07/21 06:23:31;;;;;;;133.55;56.20;;;19.90;99.90;;;19.13;100.00;97859.38;5051294;28;20480;-76
2022/07/21 06:25:59;;;;;;;144.15;58.17;;;19.80;99.90;;;19.22;100.00;97868.34;5051316;28;20401;-76
2022/07/21 06:28:25;;;;;;;124.72;54.35;;;19.90;99.90;;;19.27;100.00;97869.03;5050690;28;20401;-76
2022/07/21 06:30:51;;;;;;;136.70;58.00;;;19.90;99.90;;;19.19;100.00;97871.59;5050661;28;20901;-76
2022/07/21 06:33:17;;;;;;;156.73;60.58;;;19.90;99.90;;;19.19;100.00;97869.72;5051191;28;20432;-75
2022/07/21 06:35:43;;;;;;;186.93;65.93;;;19.80;99.90;;;19.22;100.00;97871.81;5051103;28;20488;-76
2022/07/21 06:38:09;;;;;;;175.45;65.13;;;19.90;99.90;;;19.18;100.00;97867.31;5050605;28;20401;-76
2022/07/21 06:40:35;;;;;;;201.15;65.88;;;19.80;99.90;;;19.18;100.00;97865.44;5050547;28;20417;-76
2022/07/21 06:43:03;;;;;;;207.35;68.93;;;19.80;99.90;;;19.13;100.00;97872.78;5049690;28;20402;-76
2022/07/21 06:45:29;;;;;;;183.98;65.47;;;19.90;99.90;;;19.16;100.00;97869.53;5050859;28;20409;-76
2022/07/21 06:48:04;;;;;;;156.73;61.13;;;19.80;99.90;;;19.18;100.00;97868.13;5050840;28;20437;-75
2022/07/21 06:50:30;;;;;;;193.07;63.00;;;19.90;99.90;;;19.18;100.00;97870.00;5050584;28;20891;-76
2022/07/21 06:52:56;;;;;;;201.50;67.07;;;19.90;99.90;;;19.19;100.00;97866.22;5050687;28;20895;-76
2022/07/21 06:55:22;;;;;;;154.30;57.13;;;19.90;99.90;;;19.24;100.00;97871.53;5050622;28;20463;-76
2022/07/21 06:57:48;;;;;;;184.43;62.53;;;19.90;99.90;;;19.27;100.00;97868.25;5050654;28;20535;-76
2022/07/21 07:00:17;;;;;;;180.32;68.28;;;19.90;99.90;;;19.00;100.00;97871.66;5049805;28;20894;-76
2022/07/21 07:02:43;;;;;;;139.55;58.15;;;19.70;99.90;;;19.10;100.00;97871.47;5050335;28;20401;-76
2022/07/21 07:05:09;;;;;;;162.98;60.45;;;19.70;99.90;;;19.15;100.00;97868.72;5050473;28;20394;-76
2022/07/21 07:07:35;;;;;;;104.07;48.65;;;19.80;99.90;;;19.23;100.00;97864.56;5050571;28;20432;-76
2022/07/21 07:10:02;;;;;;;187.67;65.07;;;19.80;99.90;;;19.23;100.00;97870.75;5049774;28;20404;-76
2022/07/21 07:12:28;;;;;;;159.52;59.53;;;19.90;99.90;;;19.26;100.00;97875.50;5050143;28;20887;-76
2022/07/21 07:14:54;;;;;;;169.43;61.05;;;19.90;99.90;;;19.29;100.00;97882.97;5050389;28;20448;-76
2022/07/21 07:17:21;;;;;;;137.02;54.35;;;19.90;99.90;;;19.28;100.00;97883.25;5050132;28;20970;-75
2022/07/21 07:19:49;;;;;;;155.15;56.80;;;20.00;99.90;;;19.38;100.00;97883.09;5049616;28;20607;-76
2022/07/21 07:22:15;;;;;;;157.68;55.40;;;20.00;99.90;;;19.45;100.00;97880.81;5048805;28;20913;-75
2022/07/21 07:24:42;;;;;;;153.52;56.33;;;20.10;99.90;;;19.55;100.00;97877.16;5050069;28;20401;-75
2022/07/21 07:27:08;;;;;;;134.32;54.67;;;20.20;99.90;;;19.73;100.00;97883.56;5050093;28;20418;-75
2022/07/21 07:29:33;;;;;;;101.32;47.10;;;20.30;99.90;;;19.81;100.00;97880.19;5049522;28;20408;-76
2022/07/21 07:32:00;;;;;;;139.65;54.20;;;20.40;99.90;;;19.85;100.00;97881.97;5049729;28;20412;-76
2022/07/21 07:34:27;;;;;;;148.35;56.30;;;20.50;99.90;;;19.95;100.00;97889.03;5048687;28;20407;-75
2022/07/21 07:36:53;;;;;;;138.10;52.67;;;20.50;99.90;;;19.89;100.00;97893.72;5050069;28;20397;-75
2022/07/21 07:39:19;;;;;;;134.83;52.07;;;20.40;99.90;;;20.02;100.00;97887.53;5049321;28;20412;-75
2022/07/21 07:41:45;;;;;;;103.87;45.40;;;20.60;99.90;;;20.26;100.00;97891.91;5049665;28;20405;-76
2022/07/21 07:44:11;;;;;;;139.83;52.97;;;20.70;99.90;;;20.05;100.00;97886.16;5031917;28;20408;-76
2022/07/21 07:46:37;;;;;;;141.98;52.10;;;20.60;99.90;;;20.12;100.00;97883.84;5049951;28;20809;-76
2022/07/21 07:49:03;;;;;;;130.20;48.83;;;20.70;99.90;;;20.24;100.00;97881.44;5049069;28;20405;-75
2022/07/21 07:51:30;;;;;;;119.68;47.13;;;20.80;99.90;;;20.46;100.00;97880.72;5065463;22;20413;-73
2022/07/21 07:53:56;;;;;;;96.95;41.05;;;21.00;99.90;;;20.68;100.00;97878.06;5069616;28;20474;-73
2022/07/21 07:56:22;;;;;;;114.13;43.20;;;21.20;99.90;;;20.85;100.00;97880.09;5069802;28;20438;-73
2022/07/21 07:58:48;;;;;;;124.97;45.40;;;21.40;99.90;;;20.88;100.00;97878.72;5069107;28;20400;-73
2022/07/21 08:01:16;;;;;;;81.10;36.47;;;21.40;99.90;;;20.94;100.00;97877.47;5069003;28;20510;-73
2022/07/21 08:03:42;;;;;;;74.70;33.88;;;21.50;99.90;;;20.55;100.00;97883.50;5069635;28;20901;-73
2022/07/21 08:06:08;;;;;;;61.33;30.75;;;21.00;99.90;;;20.70;100.00;97886.63;5069732;28;20430;-73
2022/07/21 08:08:35;;;;;;;49.25;26.02;;;21.20;99.90;;;20.60;100.00;97886.84;5069308;28;20399;-73
2022/07/21 08:11:01;;;;;;;40.65;24.15;;;21.30;99.90;;;20.64;100.00;97887.06;5069391;28;20880;-73
2022/07/21 08:13:27;;;;;;;52.80;28.60;;;21.30;99.90;;;20.87;100.00;97888.69;5069529;28;20929;-73
2022/07/21 08:15:53;;;;;;;59.17;30.02;;;21.30;99.90;;;21.01;100.00;97884.03;5069912;28;20757;-73
2022/07/21 08:18:20;;;;;;;51.40;26.48;;;21.50;99.90;;;21.15;100.00;97883.97;5069099;28;20399;-73
2022/07/21 08:20:47;;;;;;;37.63;22.13;;;21.60;99.90;;;21.16;100.00;97885.56;5069256;28;20419;-73
2022/07/21 08:23:14;;;;;;;46.40;24.10;;;21.70;99.90;;;21.52;100.00;97880.06;5069535;28;20469;-73
2022/07/21 08:25:42;;;;;;;47.42;22.73;;;21.90;99.90;;;21.78;100.00;97891.78;5069667;28;20893;-73
2022/07/21 08:28:08;;;;;;;35.17;20.15;;;22.20;99.90;;;21.75;100.00;97889.69;5068897;28;20905;-73
2022/07/21 08:30:35;;;;;;;35.75;20.65;;;22.10;99.90;;;21.97;100.00;97880.75;5069142;28;20390;-73
2022/07/21 08:33:02;;;;;;;32.33;19.05;;;22.40;99.90;;;21.79;100.00;97890.69;5069663;28;20714;-74
2022/07/21 08:35:28;;;;;;;25.60;15.93;;;22.40;99.90;;;21.57;100.00;97875.38;5069387;28;20403;-72
2022/07/21 08:37:59;;;;;;;37.72;20.33;;;22.40;99.90;;;21.44;100.00;97883.53;5069364;28;20411;-72
2022/07/21 08:40:26;;;;;;;43.72;21.83;;;22.10;99.90;;;21.51;100.00;97881.97;5068447;28;20424;-72
2022/07/21 08:42:54;;;;;;;39.30;20.58;;;22.00;99.90;;;21.52;100.00;97882.78;5069203;28;20396;-72
2022/07/21 08:45:22;;;;;;;34.55;20.02;;;22.00;99.90;;;21.35;100.00;97885.41;5069289;28;20399;-73
2022/07/21 08:47:52;;;;;;;29.35;17.13;;;21.90;99.90;;;21.08;100.00;97880.91;5069159;28;20465;-73
2022/07/21 08:50:18;;;;;;;36.10;19.83;;;21.70;99.90;;;21.47;100.00;97875.63;5068499;28;20414;-73
2022/07/21 08:52:44;;;;;;;30.42;17.45;;;22.00;99.90;;;21.70;100.00;97878.28;5069221;28;20777;-73
2022/07/21 08:55:10;;;;;;;30.52;16.85;;;22.10;99.90;;;21.86;100.00;97871.34;5067838;28;20782;-73
2022/07/21 08:57:39;;;;;;;30.00;17.48;;;22.40;99.90;;;21.82;100.00;97873.88;5069286;28;20474;-73
2022/07/21 09:00:09;;;;;;;29.70;17.08;;;22.40;99.90;;;21.77;100.00;97874.03;5068187;28;20407;-72
2022/07/21 09:02:37;;;;;;;32.67;18.50;;;22.30;99.90;;;21.60;100.00;97877.44;5068960;28;20974;-72
2022/07/21 09:05:07;;;;;;;24.65;14.52;;;22.20;99.90;;;21.34;100.00;97873.81;5069194;28;20495;-72
2022/07/21 09:07:49;;;;;;;29.08;17.65;;;21.90;99.90;;;21.61;100.00;97870.94;5068557;28;20486;-73
2022/07/21 09:10:20;;;;;;;25.67;15.65;;;22.10;99.90;;;21.84;100.00;97870.88;5068154;28;20388;-72
2022/07/21 09:12:51;;;;;;;21.77;14.63;;;22.30;99.90;;;22.12;100.00;97872.25;5068964;28;20714;-74
2022/07/21 09:15:22;;;;;;;19.83;12.25;;;22.60;99.90;;;22.11;100.00;97878.75;5070490;28;20824;-75
2022/07/21 09:18:06;;;;;;;15.13;10.00;;;22.60;99.90;;;22.05;100.00;97871.13;5088393;28;20905;-75
2022/07/21 09:20:33;;;;;;;15.23;11.07;;;22.50;99.90;;;22.27;100.00;97871.00;5067620;28;20506;-76
2022/07/21 09:23:06;;;;;;;18.55;11.93;;;22.70;99.90;;;22.38;100.00;97873.09;5063468;28;20401;-76
2022/07/21 09:25:39;;;;;;;13.35;9.90;;;22.80;99.90;;;22.53;100.00;97873.75;5072481;28;20392;-75
2022/07/21 09:28:13;;;;;;;12.57;10.02;;;22.80;99.90;;;22.50;100.00;97869.75;5061119;28;20434;-75
2022/07/21 09:30:55;;;;;;;12.82;9.90;;;23.20;99.90;;;22.33;100.00;97872.44;5053010;28;20389;-75
2022/07/21 09:33:31;;;;;;;11.60;9.48;;;23.00;99.90;;;22.36;100.00;97867.22;5071889;28;20973;-75
2022/07/21 09:36:05;;;;;;;11.88;9.43;;;22.70;99.90;;;22.34;100.00;97865.94;5057968;28;20973;-75
2022/07/21 09:38:33;;;;;;;12.77;8.87;;;22.80;99.90;;;22.44;100.00;97864.84;5053521;28;20456;-74
2022/07/21 09:41:12;;;;;;;12.60;9.02;;;22.80;99.90;;;22.36;100.00;97867.22;5061370;28;20498;-75
2022/07/21 09:43:42;;;;;;;10.98;8.35;;;22.80;99.90;;;22.38;100.00;97869.59;5060577;28;20394;-74
2022/07/21 09:46:17;;;;;;;11.52;7.90;;;22.50;99.90;;;22.25;100.00;97863.22;5060192;28;20754;-73
2022/07/21 09:48:46;;;;;;;11.52;8.68;;;22.50;99.90;;;22.00;100.00;97863.97;5054261;28;20412;-74
2022/07/21 09:51:28;;;;;;;13.15;9.68;;;22.20;99.90;;;22.20;100.00;97859.88;5070579;28;20410;-74
2022/07/21 09:53:58;;;;;;;12.82;9.82;;;22.60;99.90;;;22.57;100.00;97859.28;5083494;28;20477;-74
2022/07/21 09:56:27;;;;;;;11.93;8.45;;;23.00;99.90;;;22.88;100.00;97859.16;5063717;28;20405;-74
2022/07/21 09:58:56;;;;;;;12.15;7.88;;;23.30;99.90;;;23.10;100.00;97860.88;5051191;28;20451;-75